createdAt,value
2023-05-18T00:00:25.692Z,0.88
2023-05-18T00:02:52.492Z,0.80
2023-05-18T00:05:19.906Z,0.63
2023-05-18T00:07:47.851Z,0.70
2023-05-18T00:10:14.859Z,0.82
2023-05-18T00:12:41.963Z,0.70
2023-05-18T00:15:15.009Z,0.70
2023-05-18T00:17:42.734Z,0.70
2023-05-18T00:20:10.454Z,0.70
2023-05-18T00:22:42.997Z,0.70
2023-05-18T00:25:10.335Z,1.00
2023-05-18T00:27:39.846Z,0.70
2023-05-18T00:30:10.072Z,0.80
2023-05-18T00:32:39.759Z,0.90
2023-05-18T00:35:09.791Z,0.88
2023-05-18T00:37:36.682Z,0.80
2023-05-18T00:40:06.979Z,0.75
2023-05-18T00:42:34.081Z,1.10
2023-05-18T00:45:01.440Z,0.90
2023-05-18T00:47:28.491Z,1.10
2023-05-18T00:49:55.660Z,1.08
2023-05-18T00:52:23.970Z,0.80
2023-05-18T00:54:51.739Z,0.98
2023-05-18T00:57:19.447Z,0.93
2023-05-18T00:59:48.236Z,1.15
2023-05-18T01:02:15.585Z,1.27
2023-05-18T01:04:43.205Z,1.00
2023-05-18T01:07:11.346Z,0.88
2023-05-18T01:09:38.744Z,1.10
2023-05-18T01:12:36.382Z,0.95
2023-05-18T01:15:09.766Z,1.20
2023-05-18T01:18:10.576Z,1.08
2023-05-18T01:20:41.972Z,0.77
2023-05-18T01:23:53.657Z,1.30
2023-05-18T01:26:38.004Z,1.40
2023-05-18T01:29:17.985Z,1.17
2023-05-18T01:31:45.127Z,0.80
2023-05-18T01:34:12.174Z,1.13
2023-05-18T01:36:38.885Z,1.20
2023-05-18T01:39:06.515Z,1.13
2023-05-18T01:41:37.575Z,1.10
2023-05-18T01:44:26.980Z,1.13
2023-05-18T01:47:11.209Z,0.90
2023-05-18T01:49:46.596Z,0.77
2023-05-18T01:52:43.188Z,0.77
2023-05-18T01:55:13.667Z,1.00
2023-05-18T01:57:43.025Z,1.00
2023-05-18T02:00:10.625Z,0.90
2023-05-18T02:02:37.740Z,0.90
2023-05-18T02:05:06.792Z,1.00
2023-05-18T02:07:33.911Z,1.02
2023-05-18T02:10:01.253Z,0.90
2023-05-18T02:12:28.578Z,1.00
2023-05-18T02:14:55.760Z,0.60
2023-05-18T02:17:28.496Z,1.48
2023-05-18T02:19:56.573Z,1.15
2023-05-18T02:22:23.451Z,0.88
2023-05-18T02:24:56.571Z,1.10
2023-05-18T02:27:23.573Z,1.27
2023-05-18T02:29:52.009Z,0.98
2023-05-18T02:32:19.459Z,0.90
2023-05-18T02:34:46.681Z,0.80
2023-05-18T02:37:14.815Z,0.98
2023-05-18T02:39:42.008Z,1.40
2023-05-18T02:42:08.870Z,0.98
2023-05-18T02:44:35.906Z,0.98
2023-05-18T02:47:03.116Z,1.05
2023-05-18T02:49:30.226Z,1.10
2023-05-18T02:51:57.064Z,1.00
2023-05-18T02:54:23.965Z,1.15
2023-05-18T02:56:50.944Z,0.90
2023-05-18T02:59:19.157Z,1.30
2023-05-18T03:01:46.186Z,0.82
2023-05-18T03:04:14.257Z,1.00
2023-05-18T03:06:41.313Z,1.38
2023-05-18T03:09:11.500Z,1.35
2023-05-18T03:11:38.506Z,1.00
2023-05-18T03:14:05.724Z,1.10
2023-05-18T03:16:32.716Z,1.08
2023-05-18T03:19:02.271Z,1.30
2023-05-18T03:21:34.057Z,1.55
2023-05-18T03:24:01.312Z,1.10
2023-05-18T03:26:31.108Z,0.70
2023-05-18T03:29:04.133Z,1.00
2023-05-18T03:31:31.597Z,1.10
2023-05-18T03:34:04.351Z,1.08
2023-05-18T03:36:31.217Z,1.15
2023-05-18T03:38:58.265Z,1.30
2023-05-18T03:41:25.377Z,1.02
2023-05-18T03:43:52.267Z,1.00
2023-05-18T03:46:19.242Z,1.05
2023-05-18T03:48:46.322Z,1.10
2023-05-18T03:51:13.329Z,1.13
2023-05-18T03:53:49.118Z,1.00
2023-05-18T03:56:16.115Z,1.10
2023-05-18T03:58:46.548Z,1.13
2023-05-18T04:01:16.310Z,1.20
2023-05-18T04:03:44.137Z,1.10
2023-05-18T04:06:14.600Z,1.00
2023-05-18T04:08:43.548Z,1.13
2023-05-18T04:11:10.567Z,1.27
2023-05-18T04:13:38.672Z,1.48
2023-05-18T04:16:06.374Z,1.17
2023-05-18T04:18:33.649Z,1.10
2023-05-18T04:21:01.809Z,2.28
2023-05-18T04:23:28.978Z,0.85
2023-05-18T04:25:57.352Z,1.20
2023-05-18T04:28:33.197Z,1.05
2023-05-18T04:31:01.882Z,1.20
2023-05-18T04:33:31.347Z,1.05
2023-05-18T04:36:01.911Z,1.05
2023-05-18T04:38:28.984Z,1.00
2023-05-18T04:41:00.665Z,1.10
2023-05-18T04:43:28.440Z,1.17
2023-05-18T04:45:55.402Z,1.42
2023-05-18T04:48:22.466Z,1.02
2023-05-18T04:50:50.197Z,1.15
2023-05-18T04:53:18.298Z,1.10
2023-05-18T04:55:46.583Z,0.85
2023-05-18T04:58:13.479Z,0.88
2023-05-18T05:00:46.198Z,0.98
2023-05-18T05:03:13.294Z,0.82
2023-05-18T05:05:40.186Z,1.00
2023-05-18T05:08:07.453Z,0.95
2023-05-18T05:10:34.373Z,1.10
2023-05-18T05:13:01.460Z,1.42
2023-05-18T05:15:31.516Z,0.90
2023-05-18T05:17:59.208Z,1.02
2023-05-18T05:20:26.344Z,1.33
2023-05-18T05:22:55.983Z,1.23
2023-05-18T05:25:23.330Z,1.10
2023-05-18T05:27:50.437Z,0.93
2023-05-18T05:30:17.440Z,1.08
2023-05-18T05:32:47.281Z,0.98
2023-05-18T05:35:14.296Z,0.93
2023-05-18T05:37:47.221Z,1.00
2023-05-18T05:40:14.515Z,1.63
2023-05-18T05:42:42.037Z,0.93
2023-05-18T05:45:11.456Z,1.40
2023-05-18T05:47:38.303Z,1.15
2023-05-18T05:50:06.339Z,0.70
2023-05-18T05:52:33.408Z,0.77
2023-05-18T05:55:00.485Z,0.95
2023-05-18T05:57:27.396Z,1.00
2023-05-18T05:59:54.458Z,1.10
2023-05-18T06:02:21.563Z,1.60
2023-05-18T06:04:48.452Z,1.20
2023-05-18T06:07:15.360Z,0.88
2023-05-18T06:09:42.308Z,1.02
2023-05-18T06:12:09.722Z,0.90
2023-05-18T06:14:36.809Z,0.75
2023-05-18T06:17:04.024Z,1.30
2023-05-18T06:19:30.912Z,1.05
2023-05-18T06:21:57.800Z,1.48
2023-05-18T06:24:25.542Z,0.90
2023-05-18T06:26:52.526Z,0.80
2023-05-18T06:29:19.743Z,1.02
2023-05-18T06:31:46.844Z,0.93
2023-05-18T06:34:13.798Z,0.90
2023-05-18T06:36:40.936Z,0.77
2023-05-18T06:39:07.943Z,1.20
2023-05-18T06:41:35.049Z,1.30
2023-05-18T06:44:02.488Z,0.95
2023-05-18T06:46:29.522Z,1.05
2023-05-18T06:48:56.809Z,1.00
2023-05-18T06:51:24.039Z,1.17
2023-05-18T06:53:51.237Z,0.95
2023-05-18T06:56:19.014Z,1.00
2023-05-18T06:58:45.987Z,0.80
2023-05-18T07:01:13.050Z,0.80
2023-05-18T07:03:40.288Z,0.88
2023-05-18T07:06:07.559Z,0.90
2023-05-18T07:08:37.157Z,0.60
2023-05-18T07:11:05.625Z,0.95
2023-05-18T07:13:33.102Z,1.05
2023-05-18T07:16:00.168Z,1.13
2023-05-18T07:18:27.417Z,1.17
2023-05-18T07:20:54.336Z,0.98
2023-05-18T07:23:21.498Z,1.00
2023-05-18T07:25:49.315Z,0.77
2023-05-18T07:28:16.488Z,0.90
2023-05-18T07:30:43.582Z,0.90
2023-05-18T07:33:10.519Z,1.33
2023-05-18T07:35:37.252Z,0.85
2023-05-18T07:38:04.235Z,0.95
2023-05-18T07:40:31.207Z,0.70
2023-05-18T07:42:58.074Z,0.85
2023-05-18T07:45:25.081Z,0.68
2023-05-18T07:47:52.291Z,0.80
2023-05-18T07:50:19.247Z,0.90
2023-05-18T07:52:46.779Z,0.70
2023-05-18T07:55:14.047Z,0.70
2023-05-18T07:57:41.051Z,0.70
2023-05-18T08:00:10.066Z,0.73
2023-05-18T08:02:38.103Z,0.65
2023-05-18T08:05:05.385Z,1.02
2023-05-18T08:07:33.083Z,0.98
2023-05-18T08:10:00.197Z,1.38
2023-05-18T08:12:27.101Z,0.93
2023-05-18T08:14:54.152Z,0.95
2023-05-18T08:17:23.235Z,1.25
2023-05-18T08:19:50.522Z,1.17
2023-05-18T08:22:17.547Z,0.90
2023-05-18T08:24:45.184Z,0.60
2023-05-18T08:27:12.258Z,1.48
2023-05-18T08:29:39.241Z,0.80
2023-05-18T08:32:07.617Z,1.05
2023-05-18T08:34:44.881Z,1.48
2023-05-18T08:37:11.941Z,1.00
2023-05-18T08:39:41.749Z,1.23
2023-05-18T08:42:21.082Z,1.33
2023-05-18T08:45:02.691Z,1.23
2023-05-18T08:47:31.694Z,0.88
2023-05-18T08:50:10.313Z,0.65
2023-05-18T08:52:38.616Z,1.02
2023-05-18T08:55:09.455Z,0.85
2023-05-18T08:57:42.613Z,1.50
2023-05-18T09:00:13.944Z,0.80
2023-05-18T09:02:44.077Z,0.98
2023-05-18T09:05:19.589Z,0.60
2023-05-18T09:07:47.532Z,1.10
2023-05-18T09:10:18.801Z,1.05
2023-05-18T09:12:49.246Z,1.15
2023-05-18T09:15:17.697Z,0.80
2023-05-18T09:17:44.682Z,0.80
2023-05-18T09:20:12.525Z,1.10
2023-05-18T09:22:45.090Z,1.05
2023-05-18T09:25:12.273Z,1.10
2023-05-18T09:27:49.166Z,0.80
2023-05-18T09:30:16.194Z,1.20
2023-05-18T09:32:45.056Z,0.68
2023-05-18T09:35:12.355Z,0.95
2023-05-18T09:37:42.413Z,1.30
2023-05-18T09:40:12.314Z,0.93
2023-05-18T09:42:43.063Z,1.08
2023-05-18T09:45:20.034Z,0.70
2023-05-18T09:47:58.476Z,1.08
2023-05-18T09:50:31.423Z,0.80
2023-05-18T09:52:58.372Z,0.80
2023-05-18T09:55:28.101Z,1.00
2023-05-18T09:57:56.774Z,0.88
2023-05-18T10:00:29.048Z,0.90
2023-05-18T10:02:59.761Z,0.80
2023-05-18T10:05:34.853Z,0.60
2023-05-18T10:08:02.790Z,0.60
2023-05-18T10:10:29.896Z,0.80
2023-05-18T10:13:04.726Z,0.80
2023-05-18T10:15:33.639Z,0.68
2023-05-18T10:18:06.538Z,0.60
2023-05-18T10:20:33.669Z,0.57
2023-05-18T10:23:05.969Z,0.70
2023-05-18T10:25:48.978Z,0.70
2023-05-18T10:28:28.831Z,0.73
2023-05-18T10:30:57.432Z,1.00
2023-05-18T10:33:34.026Z,0.70
2023-05-18T10:36:04.098Z,0.77
2023-05-18T10:38:32.085Z,0.90
2023-05-18T10:41:02.900Z,0.73
2023-05-18T10:43:29.799Z,0.68
2023-05-18T10:45:59.054Z,0.70
2023-05-18T10:48:27.813Z,0.47
2023-05-18T10:50:57.071Z,1.40
2023-05-18T10:53:27.167Z,0.70
2023-05-18T10:55:57.198Z,0.98
2023-05-18T10:58:27.819Z,0.60
2023-05-18T11:01:00.333Z,0.60
2023-05-18T11:03:28.833Z,0.95
2023-05-18T11:06:12.506Z,0.70
2023-05-18T11:08:50.828Z,0.70
2023-05-18T11:11:19.483Z,0.80
2023-05-18T11:13:51.912Z,0.82
2023-05-18T11:16:21.116Z,0.80
2023-05-18T11:18:54.831Z,0.50
2023-05-18T11:21:24.750Z,0.90
2023-05-18T11:24:14.220Z,0.85
2023-05-18T11:26:46.761Z,0.50
2023-05-18T11:29:18.733Z,0.55
2023-05-18T11:31:47.339Z,0.80
2023-05-18T11:34:45.341Z,0.98
2023-05-18T11:37:17.349Z,0.73
2023-05-18T11:40:00.391Z,0.55
2023-05-18T11:42:34.129Z,0.60
2023-05-18T11:45:11.651Z,0.60
2023-05-18T11:47:42.128Z,0.82
2023-05-18T11:50:19.140Z,0.90
2023-05-18T11:52:48.253Z,0.73
2023-05-18T11:55:19.153Z,0.75
2023-05-18T11:57:53.513Z,0.75
2023-05-18T12:00:21.190Z,0.80
2023-05-18T12:02:49.620Z,0.65
2023-05-18T12:05:17.520Z,0.85
2023-05-18T12:07:45.703Z,0.93
2023-05-18T12:10:17.665Z,0.73
2023-05-18T12:12:49.518Z,0.73
2023-05-18T12:15:17.352Z,0.68
2023-05-18T12:17:46.526Z,0.50
2023-05-18T12:20:18.566Z,0.43
2023-05-18T12:22:50.418Z,0.60
2023-05-18T12:25:17.986Z,0.70
2023-05-18T12:27:46.445Z,1.00
2023-05-18T12:30:19.040Z,0.65
2023-05-18T12:32:54.217Z,0.85
2023-05-18T12:38:00.987Z,1.00
2023-05-18T12:40:37.381Z,0.50
2023-05-18T12:43:04.417Z,0.75
2023-05-18T12:45:35.292Z,0.50
2023-05-18T12:48:05.686Z,0.60
2023-05-18T12:50:32.847Z,0.70
2023-05-18T12:53:00.748Z,0.65
2023-05-18T12:55:31.335Z,0.63
2023-05-18T12:58:21.245Z,0.80
2023-05-18T13:00:49.436Z,0.60
2023-05-18T13:03:20.372Z,0.65
2023-05-18T13:06:05.948Z,0.55
2023-05-18T13:11:16.911Z,1.00
2023-05-18T13:14:04.608Z,0.60
2023-05-18T13:16:33.825Z,0.57
2023-05-18T13:19:18.323Z,0.38
2023-05-18T13:21:45.705Z,0.90
2023-05-18T13:24:32.862Z,0.70
2023-05-18T13:27:07.261Z,0.60
2023-05-18T13:29:59.809Z,0.68
2023-05-18T13:32:27.023Z,0.70
2023-05-18T13:34:53.907Z,0.85
2023-05-18T13:37:23.571Z,0.70
2023-05-18T13:39:50.966Z,0.68
2023-05-18T13:42:21.392Z,0.65
2023-05-18T13:44:48.492Z,0.60
2023-05-18T13:47:15.665Z,0.70
2023-05-18T13:49:42.502Z,0.60
2023-05-18T13:52:12.497Z,0.65
2023-05-18T13:54:42.006Z,0.82
2023-05-18T13:57:09.269Z,0.65
2023-05-18T13:59:36.287Z,0.85
2023-05-18T14:02:04.472Z,0.70
2023-05-18T14:04:34.337Z,0.90
2023-05-18T14:07:03.655Z,0.80
2023-05-18T14:09:34.038Z,1.00
2023-05-18T14:12:03.926Z,0.70
2023-05-18T14:14:30.953Z,0.98
2023-05-18T14:16:58.057Z,0.65
2023-05-18T14:19:27.212Z,0.75
2023-05-18T14:21:54.360Z,0.82
2023-05-18T14:24:21.435Z,0.52
2023-05-18T14:26:50.989Z,0.70
2023-05-18T14:29:17.968Z,0.60
2023-05-18T14:31:44.969Z,0.65
2023-05-18T14:34:14.060Z,0.60
2023-05-18T14:36:41.021Z,0.70
2023-05-18T14:39:17.389Z,0.70
2023-05-18T14:41:48.931Z,0.73
2023-05-18T14:44:15.957Z,0.60
2023-05-18T14:46:43.220Z,0.45
2023-05-18T14:49:10.337Z,0.63
2023-05-18T14:51:37.391Z,0.82
2023-05-18T14:54:04.956Z,0.70
2023-05-18T14:56:31.985Z,1.10
2023-05-18T14:59:04.410Z,0.88
2023-05-18T15:01:31.522Z,0.80
2023-05-18T15:03:58.737Z,0.50
2023-05-18T15:06:26.341Z,0.75
2023-05-18T15:08:53.360Z,0.55
2023-05-18T15:11:21.171Z,0.40
2023-05-18T15:13:49.559Z,0.70
2023-05-18T15:16:19.685Z,0.43
2023-05-18T15:18:47.073Z,0.50
2023-05-18T15:21:14.048Z,0.63
2023-05-18T15:23:40.951Z,0.70
2023-05-18T15:26:09.296Z,0.55
2023-05-18T15:28:39.052Z,0.60
2023-05-18T15:31:06.124Z,0.80
2023-05-18T15:33:36.063Z,0.57
2023-05-18T15:36:03.083Z,0.35
2023-05-18T15:38:29.920Z,0.65
2023-05-18T15:40:56.977Z,0.60
2023-05-18T15:43:26.395Z,0.55
2023-05-18T15:45:53.525Z,0.52
2023-05-18T15:48:23.425Z,0.57
2023-05-18T15:50:50.377Z,0.68
2023-05-18T15:53:17.318Z,0.57
2023-05-18T15:55:44.388Z,0.70
2023-05-18T15:58:19.008Z,0.60
2023-05-18T16:00:48.061Z,0.70
2023-05-18T16:03:15.066Z,0.75
2023-05-18T16:05:42.048Z,0.65
2023-05-18T16:08:11.666Z,0.70
2023-05-18T16:10:38.529Z,0.60
2023-05-18T16:13:06.197Z,0.80
2023-05-18T16:15:34.672Z,1.00
2023-05-18T16:18:01.868Z,0.57
2023-05-18T16:20:29.269Z,0.60
2023-05-18T16:22:56.451Z,0.65
2023-05-18T16:25:24.209Z,0.60
2023-05-18T16:27:51.349Z,0.65
2023-05-18T16:30:18.456Z,0.30
2023-05-18T16:32:45.528Z,0.40
2023-05-18T16:35:12.731Z,0.47
2023-05-18T16:37:39.896Z,0.75
2023-05-18T16:40:07.605Z,0.35
2023-05-18T16:42:34.984Z,0.75
2023-05-18T16:45:02.058Z,0.70
2023-05-18T16:47:28.934Z,0.90
2023-05-18T16:49:55.928Z,0.50
2023-05-18T16:52:22.960Z,0.63
2023-05-18T16:54:49.944Z,0.80
2023-05-18T16:57:17.507Z,0.60
2023-05-18T16:59:44.621Z,0.82
2023-05-18T17:02:13.657Z,0.90
2023-05-18T17:04:41.502Z,0.65
2023-05-18T17:07:10.068Z,0.90
2023-05-18T17:09:40.214Z,0.73
2023-05-18T17:12:08.103Z,0.55
2023-05-18T17:14:35.194Z,0.60
2023-05-18T17:17:02.385Z,0.60
2023-05-18T17:19:29.368Z,0.60
2023-05-18T17:21:56.671Z,0.95
2023-05-18T17:24:23.631Z,0.82
2023-05-18T17:26:50.739Z,0.50
2023-05-18T17:29:19.627Z,0.80
2023-05-18T17:31:48.108Z,0.90
2023-05-18T17:34:15.232Z,0.57
2023-05-18T17:36:42.763Z,0.80
2023-05-18T17:39:09.822Z,0.70
2023-05-18T17:41:37.256Z,0.75
2023-05-18T17:44:04.494Z,0.68
2023-05-18T17:46:31.552Z,0.90
2023-05-18T17:49:02.073Z,0.60
2023-05-18T17:51:29.025Z,0.68
2023-05-18T17:53:56.829Z,0.50
2023-05-18T17:56:25.023Z,0.73
2023-05-18T17:58:53.937Z,1.20
2023-05-18T18:01:23.136Z,0.82
2023-05-18T18:03:49.965Z,0.65
2023-05-18T18:06:22.884Z,0.80
2023-05-18T18:08:50.933Z,0.75
2023-05-18T18:11:17.896Z,0.75
2023-05-18T18:13:49.322Z,0.70
2023-05-18T18:16:17.333Z,1.13
2023-05-18T18:18:45.820Z,0.60
2023-05-18T18:21:13.391Z,0.80
2023-05-18T18:23:40.566Z,0.80
2023-05-18T18:26:08.236Z,1.42
2023-05-18T18:28:35.318Z,0.95
2023-05-18T18:31:03.464Z,1.40
2023-05-18T18:33:33.702Z,1.48
2023-05-18T18:36:04.589Z,1.30
2023-05-18T18:38:34.103Z,0.90
2023-05-18T18:41:04.664Z,1.10
2023-05-18T18:43:39.524Z,1.08
2023-05-18T18:46:12.563Z,1.42
2023-05-18T18:48:39.615Z,1.23
2023-05-18T18:51:06.741Z,1.02
2023-05-18T18:53:34.512Z,0.75
2023-05-18T18:56:04.218Z,1.38
2023-05-18T18:58:33.544Z,1.00
2023-05-18T19:01:00.838Z,1.20
2023-05-18T19:03:34.266Z,1.20
2023-05-18T19:06:01.535Z,1.25
2023-05-18T19:08:28.364Z,1.00
2023-05-18T19:10:55.312Z,1.17
2023-05-18T19:13:22.368Z,0.90
2023-05-18T19:15:49.459Z,0.63
2023-05-18T19:18:16.357Z,1.00
2023-05-18T19:20:43.314Z,1.30
2023-05-18T19:23:12.613Z,1.40
2023-05-18T19:25:42.430Z,1.60
2023-05-18T19:28:09.541Z,1.90
2023-05-18T19:30:39.411Z,1.17
2023-05-18T19:33:06.404Z,3.17
2023-05-18T19:35:34.146Z,1.33
2023-05-18T19:38:02.664Z,1.45
2023-05-18T19:40:32.597Z,1.25
2023-05-18T19:43:00.095Z,1.33
2023-05-18T19:45:27.136Z,1.15
2023-05-18T19:47:55.568Z,1.35
2023-05-18T19:50:22.457Z,1.00
2023-05-18T19:52:52.801Z,1.13
2023-05-18T19:55:22.331Z,1.40
2023-05-18T19:57:49.198Z,2.20
2023-05-18T20:00:19.258Z,1.30
2023-05-18T20:02:46.292Z,1.10
2023-05-18T20:05:13.370Z,0.85
2023-05-18T20:07:43.391Z,1.02
2023-05-18T20:10:12.642Z,0.98
2023-05-18T20:12:39.619Z,1.10
2023-05-18T20:15:10.662Z,1.42
2023-05-18T20:17:43.782Z,0.98
2023-05-18T20:20:13.364Z,1.42
2023-05-18T20:22:40.905Z,1.10
2023-05-18T20:25:08.348Z,0.88
2023-05-18T20:27:35.357Z,1.27
2023-05-18T20:30:04.441Z,1.42
2023-05-18T20:32:32.858Z,1.35
2023-05-18T20:35:00.032Z,1.17
2023-05-18T20:37:27.013Z,1.40
2023-05-18T20:39:54.424Z,1.23
2023-05-18T20:42:22.125Z,1.13
2023-05-18T20:44:51.919Z,1.23
2023-05-18T20:47:22.144Z,1.20
2023-05-18T20:49:49.363Z,1.00
2023-05-18T20:52:16.888Z,1.10
2023-05-18T20:54:43.942Z,1.38
2023-05-18T20:57:14.035Z,0.82
2023-05-18T20:59:41.699Z,1.67
2023-05-18T21:02:08.771Z,1.55
2023-05-18T21:04:36.371Z,1.20
2023-05-18T21:07:05.733Z,1.30
2023-05-18T21:09:34.318Z,1.40
2023-05-18T21:12:04.018Z,1.15
2023-05-18T21:14:31.045Z,1.38
2023-05-18T21:16:58.237Z,1.42
2023-05-18T21:19:25.818Z,1.73
2023-05-18T21:21:52.766Z,1.73
2023-05-18T21:24:19.810Z,1.13
2023-05-18T21:26:46.765Z,1.38
2023-05-18T21:29:13.856Z,1.20
2023-05-18T21:31:43.959Z,1.42
2023-05-18T21:34:14.161Z,1.58
2023-05-18T21:36:41.697Z,1.77
2023-05-18T21:39:09.680Z,1.23
2023-05-18T21:41:40.482Z,1.40
2023-05-18T21:44:07.427Z,1.48
2023-05-18T21:46:35.613Z,1.48
2023-05-18T21:49:03.997Z,2.08
2023-05-18T21:51:33.653Z,1.60
2023-05-18T21:54:04.414Z,1.15
2023-05-18T21:56:34.392Z,1.42
2023-05-18T21:59:01.454Z,3.05
2023-05-18T22:01:28.544Z,1.52
2023-05-18T22:03:55.651Z,1.40
2023-05-18T22:06:22.942Z,1.58
2023-05-18T22:08:51.785Z,1.70
2023-05-18T22:11:18.937Z,1.55
2023-05-18T22:13:46.039Z,1.50
2023-05-18T22:16:13.950Z,1.50
2023-05-18T22:18:49.362Z,1.20
2023-05-18T22:21:16.288Z,1.52
2023-05-18T22:23:43.302Z,1.52
2023-05-18T22:26:10.327Z,1.38
2023-05-18T22:28:37.351Z,1.83
2023-05-18T22:31:04.230Z,1.35
2023-05-18T22:33:31.381Z,1.73
2023-05-18T22:35:58.821Z,2.08
2023-05-18T22:38:27.767Z,1.55
2023-05-18T22:40:54.607Z,1.85
2023-05-18T22:43:24.941Z,1.40
2023-05-18T22:45:54.573Z,1.40
2023-05-18T22:48:21.345Z,1.67
2023-05-18T22:50:48.529Z,1.70
2023-05-18T22:53:15.516Z,1.90
2023-05-18T22:55:42.550Z,1.92
2023-05-18T22:58:09.471Z,1.40
2023-05-18T23:00:36.820Z,1.55
2023-05-18T23:03:04.008Z,1.50
2023-05-18T23:05:32.811Z,1.50
2023-05-18T23:07:59.971Z,1.42
2023-05-18T23:10:28.858Z,1.77
2023-05-18T23:12:58.562Z,1.55
2023-05-18T23:15:26.121Z,1.33
2023-05-18T23:17:55.938Z,1.45
2023-05-18T23:20:23.267Z,1.52
2023-05-18T23:22:50.399Z,1.50
2023-05-18T23:25:18.085Z,1.58
2023-05-18T23:27:45.769Z,1.77
2023-05-18T23:30:13.114Z,1.67
2023-05-18T23:32:40.561Z,1.77
2023-05-18T23:35:08.611Z,1.55
2023-05-18T23:37:39.974Z,1.60
2023-05-18T23:40:11.890Z,1.80
2023-05-18T23:42:41.643Z,1.50
2023-05-18T23:45:09.395Z,1.73
2023-05-18T23:47:36.560Z,1.48
2023-05-18T23:50:03.968Z,2.00
2023-05-18T23:52:32.896Z,1.63
2023-05-18T23:55:01.907Z,1.80
2023-05-18T23:57:29.315Z,1.58
2023-05-18T23:59:56.510Z,1.25
